sensor_id;sensor_type;location;lat;lon;timestamp;pressure;altitude;pressure_sealevel;temperature;humidity
16481;BME280;44634;54.110;12.138;2023-04-30T00:01:47;102001.13;;;9.90;100.00
16481;BME280;44634;54.110;12.138;2023-04-30T00:04:15;102009.41;;;9.98;100.00
16481;BME280;44634;54.110;12.138;2023-04-30T00:06:43;102014.19;;;9.79;100.00
16481;BME280;44634;54.110;12.138;2023-04-30T00:09:10;102016.31;;;9.47;100.00
16481;BME280;44634;54.110;12.138;2023-04-30T00:11:38;102015.47;;;9.73;100.00
16481;BME280;44634;54.110;12.138;2023-04-30T00:14:06;102018.72;;;9.50;100.00
16481;BME280;44634;54.110;12.138;2023-04-30T00:16:35;102025.09;;;9.33;100.00
16481;BME280;44634;54.110;12.138;2023-04-30T00:19:04;102023.03;;;9.24;100.00
16481;BME280;44634;54.110;12.138;2023-04-30T00:21:32;102023.28;;;8.92;100.00
16481;BME280;44634;54.110;12.138;2023-04-30T00:24:00;102024.47;;;9.30;100.00
16481;BME280;44634;54.110;12.138;2023-04-30T00:26:28;102022.13;;;9.52;100.00
16481;BME280;44634;54.110;12.138;2023-04-30T00:28:56;102032.03;;;9.48;100.00
16481;BME280;44634;54.110;12.138;2023-04-30T00:31:24;102027.59;;;9.08;100.00
16481;BME280;44634;54.110;12.138;2023-04-30T00:33:52;102029.28;;;8.94;100.00
16481;BME280;44634;54.110;12.138;2023-04-30T00:36:21;102027.66;;;9.20;100.00
16481;BME280;44634;54.110;12.138;2023-04-30T00:38:48;102040.50;;;9.12;100.00
16481;BME280;44634;54.110;12.138;2023-04-30T00:41:17;102035.28;;;9.25;100.00
16481;BME280;44634;54.110;12.138;2023-04-30T00:43:45;102035.59;;;9.06;100.00
16481;BME280;44634;54.110;12.138;2023-04-30T00:46:13;102044.84;;;8.85;100.00
16481;BME280;44634;54.110;12.138;2023-04-30T00:48:41;102040.44;;;9.00;100.00
16481;BME280;44634;54.110;12.138;2023-04-30T00:51:09;102041.47;;;9.11;100.00
16481;BME280;44634;54.110;12.138;2023-04-30T00:53:39;102047.94;;;9.06;100.00
16481;BME280;44634;54.110;12.138;2023-04-30T00:56:08;102064.06;;;8.87;100.00
16481;BME280;44634;54.110;12.138;2023-04-30T00:58:36;102057.28;;;8.69;100.00
16481;BME280;44634;54.110;12.138;2023-04-30T01:01:04;102064.81;;;9.03;100.00
16481;BME280;44634;54.110;12.138;2023-04-30T01:03:32;102067.25;;;8.78;100.00
16481;BME280;44634;54.110;12.138;2023-04-30T01:06:01;102070.47;;;8.69;100.00
16481;BME280;44634;54.110;12.138;2023-04-30T01:08:29;102074.03;;;8.96;100.00
16481;BME280;44634;54.110;12.138;2023-04-30T01:11:09;102074.72;;;9.14;100.00
16481;BME280;44634;54.110;12.138;2023-04-30T01:13:44;102075.66;;;8.84;100.00
16481;BME280;44634;54.110;12.138;2023-04-30T01:16:19;102073.13;;;8.97;100.00
16481;BME280;44634;54.110;12.138;2023-04-30T01:18:54;102070.47;;;9.11;100.00
16481;BME280;44634;54.110;12.138;2023-04-30T01:21:23;102081.19;;;8.65;100.00
16481;BME280;44634;54.110;12.138;2023-04-30T01:24:13;102071.31;;;9.12;100.00
16481;BME280;44634;54.110;12.138;2023-04-30T01:27:05;102089.88;;;8.38;100.00
16481;BME280;44634;54.110;12.138;2023-04-30T01:29:35;102080.59;;;8.46;100.00
16481;BME280;44634;54.110;12.138;2023-04-30T01:32:04;102085.25;;;8.85;100.00
16481;BME280;44634;54.110;12.138;2023-04-30T01:34:32;102082.03;;;8.80;100.00
16481;BME280;44634;54.110;12.138;2023-04-30T01:37:08;102082.16;;;8.34;100.00
16481;BME280;44634;54.110;12.138;2023-04-30T01:40:07;102078.94;;;8.88;100.00
16481;BME280;44634;54.110;12.138;2023-04-30T01:42:41;102093.41;;;8.67;100.00
16481;BME280;44634;54.110;12.138;2023-04-30T01:45:21;102091.03;;;8.48;100.00
16481;BME280;44634;54.110;12.138;2023-04-30T01:48:03;102092.31;;;8.71;100.00
16481;BME280;44634;54.110;12.138;2023-04-30T01:50:39;102093.66;;;8.48;100.00
16481;BME280;44634;54.110;12.138;2023-04-30T01:53:12;102091.44;;;8.26;100.00
16481;BME280;44634;54.110;12.138;2023-04-30T01:55:48;102092.38;;;8.55;100.00
16481;BME280;44634;54.110;12.138;2023-04-30T01:58:19;102097.59;;;8.11;100.00
16481;BME280;44634;54.110;12.138;2023-04-30T02:00:50;102102.25;;;8.51;100.00
16481;BME280;44634;54.110;12.138;2023-04-30T02:03:18;102109.03;;;8.55;100.00
16481;BME280;44634;54.110;12.138;2023-04-30T02:05:47;102117.09;;;8.22;100.00
16481;BME280;44634;54.110;12.138;2023-04-30T02:08:15;102115.72;;;8.31;100.00
16481;BME280;44634;54.110;12.138;2023-04-30T02:10:42;102112.75;;;8.21;100.00
16481;BME280;44634;54.110;12.138;2023-04-30T02:13:10;102123.38;;;8.20;100.00
16481;BME280;44634;54.110;12.138;2023-04-30T02:15:38;102122.25;;;8.24;100.00
16481;BME280;44634;54.110;12.138;2023-04-30T02:18:07;102130.50;;;8.63;100.00
16481;BME280;44634;54.110;12.138;2023-04-30T02:20:35;102124.88;;;8.55;100.00
16481;BME280;44634;54.110;12.138;2023-04-30T02:23:03;102124.31;;;8.34;100.00
16481;BME280;44634;54.110;12.138;2023-04-30T02:25:31;102114.88;;;8.60;100.00
16481;BME280;44634;54.110;12.138;2023-04-30T02:28:03;102125.16;;;8.19;100.00
16481;BME280;44634;54.110;12.138;2023-04-30T02:30:31;102130.09;;;8.10;100.00
16481;BME280;44634;54.110;12.138;2023-04-30T02:32:59;102117.09;;;8.22;100.00
16481;BME280;44634;54.110;12.138;2023-04-30T02:35:29;102128.13;;;8.29;100.00
16481;BME280;44634;54.110;12.138;2023-04-30T02:37:57;102126.72;;;8.39;100.00
16481;BME280;44634;54.110;12.138;2023-04-30T02:40:25;102131.50;;;8.47;100.00
16481;BME280;44634;54.110;12.138;2023-04-30T02:42:52;102122.59;;;8.33;100.00
16481;BME280;44634;54.110;12.138;2023-04-30T02:45:22;102132.09;;;7.59;100.00
16481;BME280;44634;54.110;12.138;2023-04-30T02:47:50;102128.88;;;8.31;100.00
16481;BME280;44634;54.110;12.138;2023-04-30T02:50:18;102132.84;;;7.92;100.00
16481;BME280;44634;54.110;12.138;2023-04-30T02:52:47;102138.88;;;8.10;100.00
16481;BME280;44634;54.110;12.138;2023-04-30T02:55:15;102140.84;;;7.91;100.00
16481;BME280;44634;54.110;12.138;2023-04-30T02:57:43;102142.22;;;7.98;100.00
16481;BME280;44634;54.110;12.138;2023-04-30T03:00:12;102149.59;;;7.75;100.00
16481;BME280;44634;54.110;12.138;2023-04-30T03:02:39;102148.41;;;8.13;100.00
16481;BME280;44634;54.110;12.138;2023-04-30T03:05:08;102153.34;;;7.87;100.00
16481;BME280;44634;54.110;12.138;2023-04-30T03:07:35;102148.41;;;7.97;100.00
16481;BME280;44634;54.110;12.138;2023-04-30T03:10:06;102149.47;;;8.09;100.00
16481;BME280;44634;54.110;12.138;2023-04-30T03:12:34;102163.28;;;7.82;100.00
16481;BME280;44634;54.110;12.138;2023-04-30T03:15:02;102154.84;;;8.07;100.00
16481;BME280;44634;54.110;12.138;2023-04-30T03:17:30;102153.75;;;8.11;100.00
16481;BME280;44634;54.110;12.138;2023-04-30T03:19:57;102157.25;;;8.12;100.00
16481;BME280;44634;54.110;12.138;2023-04-30T03:22:25;102160.50;;;8.47;100.00
16481;BME280;44634;54.110;12.138;2023-04-30T03:24:53;102168.00;;;8.23;100.00
16481;BME280;44634;54.110;12.138;2023-04-30T03:27:22;102172.25;;;8.41;100.00
16481;BME280;44634;54.110;12.138;2023-04-30T03:29:50;102165.81;;;7.99;100.00
16481;BME280;44634;54.110;12.138;2023-04-30T03:32:18;102168.50;;;8.29;100.00
16481;BME280;44634;54.110;12.138;2023-04-30T03:34:46;102159.84;;;8.27;100.00
16481;BME280;44634;54.110;12.138;2023-04-30T03:37:13;102157.22;;;8.27;100.00
16481;BME280;44634;54.110;12.138;2023-04-30T03:39:41;102165.03;;;8.45;100.00
16481;BME280;44634;54.110;12.138;2023-04-30T03:42:09;102171.84;;;8.17;100.00
16481;BME280;44634;54.110;12.138;2023-04-30T03:44:38;102160.19;;;8.37;100.00
16481;BME280;44634;54.110;12.138;2023-04-30T03:47:06;102172.16;;;8.27;100.00
16481;BME280;44634;54.110;12.138;2023-04-30T03:49:33;102171.91;;;8.16;100.00
16481;BME280;44634;54.110;12.138;2023-04-30T03:52:01;102172.78;;;8.00;100.00
16481;BME280;44634;54.110;12.138;2023-04-30T03:54:30;102158.00;;;8.59;100.00
16481;BME280;44634;54.110;12.138;2023-04-30T03:56:59;102163.84;;;8.34;100.00
16481;BME280;44634;54.110;12.138;2023-04-30T03:59:29;102171.00;;;8.17;100.00
16481;BME280;44634;54.110;12.138;2023-04-30T04:01:59;102172.53;;;8.05;100.00
16481;BME280;44634;54.110;12.138;2023-04-30T04:04:27;102184.94;;;8.34;100.00
16481;BME280;44634;54.110;12.138;2023-04-30T04:06:55;102179.72;;;8.33;100.00
16481;BME280;44634;54.110;12.138;2023-04-30T04:09:23;102186.22;;;8.73;100.00
16481;BME280;44634;54.110;12.138;2023-04-30T04:11:51;102191.63;;;8.56;100.00
16481;BME280;44634;54.110;12.138;2023-04-30T04:14:18;102202.25;;;8.23;100.00
16481;BME280;44634;54.110;12.138;2023-04-30T04:16:46;102195.63;;;8.77;100.00
16481;BME280;44634;54.110;12.138;2023-04-30T04:19:15;102199.63;;;8.84;100.00
16481;BME280;44634;54.110;12.138;2023-04-30T04:21:43;102199.06;;;8.63;100.00
16481;BME280;44634;54.110;12.138;2023-04-30T04:24:11;102200.81;;;8.49;100.00
16481;BME280;44634;54.110;12.138;2023-04-30T04:26:39;102196.09;;;8.70;100.00
16481;BME280;44634;54.110;12.138;2023-04-30T04:29:06;102196.03;;;8.24;100.00
16481;BME280;44634;54.110;12.138;2023-04-30T04:31:35;102195.84;;;8.58;100.00
16481;BME280;44634;54.110;12.138;2023-04-30T04:34:04;102198.25;;;8.31;100.00
16481;BME280;44634;54.110;12.138;2023-04-30T04:36:33;102202.59;;;8.48;100.00
16481;BME280;44634;54.110;12.138;2023-04-30T04:39:01;102198.25;;;8.47;100.00
16481;BME280;44634;54.110;12.138;2023-04-30T04:41:29;102209.31;;;8.84;100.00
16481;BME280;44634;54.110;12.138;2023-04-30T04:43:58;102205.97;;;9.10;100.00
16481;BME280;44634;54.110;12.138;2023-04-30T04:46:27;102202.38;;;8.97;100.00
16481;BME280;44634;54.110;12.138;2023-04-30T04:48:55;102210.44;;;8.94;100.00
16481;BME280;44634;54.110;12.138;2023-04-30T04:51:23;102206.91;;;8.49;100.00
16481;BME280;44634;54.110;12.138;2023-04-30T04:53:52;102208.84;;;8.91;100.00
16481;BME280;44634;54.110;12.138;2023-04-30T04:56:20;102217.56;;;8.78;100.00
16481;BME280;44634;54.110;12.138;2023-04-30T04:58:47;102223.06;;;8.89;100.00
16481;BME280;44634;54.110;12.138;2023-04-30T05:01:15;102220.38;;;9.05;100.00
16481;BME280;44634;54.110;12.138;2023-04-30T05:03:43;102220.66;;;9.00;100.00
16481;BME280;44634;54.110;12.138;2023-04-30T05:06:11;102226.00;;;8.84;100.00
16481;BME280;44634;54.110;12.138;2023-04-30T05:08:39;102227.22;;;8.93;100.00
16481;BME280;44634;54.110;12.138;2023-04-30T05:11:08;102235.59;;;8.85;100.00
16481;BME280;44634;54.110;12.138;2023-04-30T05:13:36;102235.69;;;8.84;100.00
16481;BME280;44634;54.110;12.138;2023-04-30T05:16:04;102248.09;;;8.82;100.00
16481;BME280;44634;54.110;12.138;2023-04-30T05:18:31;102239.72;;;9.19;100.00
16481;BME280;44634;54.110;12.138;2023-04-30T05:20:59;102231.97;;;9.02;100.00
16481;BME280;44634;54.110;12.138;2023-04-30T05:23:27;102234.59;;;9.02;100.00
16481;BME280;44634;54.110;12.138;2023-04-30T05:25:55;102244.59;;;8.51;100.00
16481;BME280;44634;54.110;12.138;2023-04-30T05:28:24;102243.31;;;8.88;100.00
16481;BME280;44634;54.110;12.138;2023-04-30T05:30:52;102243.50;;;9.15;100.00
16481;BME280;44634;54.110;12.138;2023-04-30T05:33:20;102240.19;;;9.12;100.00
16481;BME280;44634;54.110;12.138;2023-04-30T05:35:47;102234.19;;;9.38;100.00
16481;BME280;44634;54.110;12.138;2023-04-30T05:38:15;102251.97;;;9.20;100.00
16481;BME280;44634;54.110;12.138;2023-04-30T05:40:43;102241.28;;;9.08;100.00
16481;BME280;44634;54.110;12.138;2023-04-30T05:43:11;102263.28;;;9.22;100.00
16481;BME280;44634;54.110;12.138;2023-04-30T05:45:40;102257.78;;;9.41;100.00
16481;BME280;44634;54.110;12.138;2023-04-30T05:48:08;102251.13;;;9.20;100.00
16481;BME280;44634;54.110;12.138;2023-04-30T05:50:36;102264.19;;;9.51;100.00
16481;BME280;44634;54.110;12.138;2023-04-30T05:53:03;102265.03;;;9.66;100.00
16481;BME280;44634;54.110;12.138;2023-04-30T05:55:31;102260.78;;;9.64;100.00
16481;BME280;44634;54.110;12.138;2023-04-30T05:57:59;102270.13;;;9.11;100.00
16481;BME280;44634;54.110;12.138;2023-04-30T06:00:27;102280.97;;;9.50;100.00
16481;BME280;44634;54.110;12.138;2023-04-30T06:02:56;102276.81;;;9.46;100.00
16481;BME280;44634;54.110;12.138;2023-04-30T06:05:24;102272.69;;;9.71;100.00
16481;BME280;44634;54.110;12.138;2023-04-30T06:07:52;102257.34;;;9.19;100.00
16481;BME280;44634;54.110;12.138;2023-04-30T06:10:20;102275.03;;;9.03;100.00
16481;BME280;44634;54.110;12.138;2023-04-30T06:12:47;102275.16;;;9.15;100.00
16481;BME280;44634;54.110;12.138;2023-04-30T06:15:15;102274.84;;;9.06;100.00
16481;BME280;44634;54.110;12.138;2023-04-30T06:17:43;102274.78;;;9.21;100.00
16481;BME280;44634;54.110;12.138;2023-04-30T06:20:12;102280.28;;;9.33;100.00
16481;BME280;44634;54.110;12.138;2023-04-30T06:22:41;102285.97;;;8.81;100.00
16481;BME280;44634;54.110;12.138;2023-04-30T06:25:09;102288.97;;;9.05;100.00
16481;BME280;44634;54.110;12.138;2023-04-30T06:27:36;102276.88;;;9.31;100.00
16481;BME280;44634;54.110;12.138;2023-04-30T06:30:06;102283.31;;;9.27;100.00
16481;BME280;44634;54.110;12.138;2023-04-30T06:32:34;102281.66;;;9.24;100.00
16481;BME280;44634;54.110;12.138;2023-04-30T06:35:02;102290.34;;;8.96;100.00
16481;BME280;44634;54.110;12.138;2023-04-30T06:37:31;102295.44;;;9.15;100.00
16481;BME280;44634;54.110;12.138;2023-04-30T06:40:03;102300.13;;;9.24;100.00
16481;BME280;44634;54.110;12.138;2023-04-30T06:42:32;102302.00;;;9.52;100.00
16481;BME280;44634;54.110;12.138;2023-04-30T06:45:00;102293.63;;;9.88;100.00
16481;BME280;44634;54.110;12.138;2023-04-30T06:47:29;102302.19;;;9.49;100.00
16481;BME280;44634;54.110;12.138;2023-04-30T06:50:00;102302.31;;;9.17;100.00
16481;BME280;44634;54.110;12.138;2023-04-30T06:52:29;102303.13;;;9.48;100.00
16481;BME280;44634;54.110;12.138;2023-04-30T06:54:59;102310.84;;;9.51;100.00
16481;BME280;44634;54.110;12.138;2023-04-30T06:57:27;102301.06;;;9.81;100.00
16481;BME280;44634;54.110;12.138;2023-04-30T06:59:54;102300.28;;;9.51;100.00
16481;BME280;44634;54.110;12.138;2023-04-30T07:02:22;102299.56;;;10.06;100.00
16481;BME280;44634;54.110;12.138;2023-04-30T07:04:50;102310.31;;;9.74;100.00
16481;BME280;44634;54.110;12.138;2023-04-30T07:07:18;102317.09;;;10.35;100.00
16481;BME280;44634;54.110;12.138;2023-04-30T07:09:46;102324.84;;;9.81;100.00
16481;BME280;44634;54.110;12.138;2023-04-30T07:12:18;102319.41;;;10.54;100.00
16481;BME280;44634;54.110;12.138;2023-04-30T07:14:46;102318.25;;;10.17;100.00
16481;BME280;44634;54.110;12.138;2023-04-30T07:17:14;102323.25;;;9.93;100.00
16481;BME280;44634;54.110;12.138;2023-04-30T07:19:42;102332.53;;;10.56;100.00
16481;BME280;44634;54.110;12.138;2023-04-30T07:22:10;102335.50;;;10.08;100.00
16481;BME280;44634;54.110;12.138;2023-04-30T07:24:37;102324.50;;;10.02;100.00
16481;BME280;44634;54.110;12.138;2023-04-30T07:27:05;102322.03;;;9.84;100.00
16481;BME280;44634;54.110;12.138;2023-04-30T07:29:34;102330.53;;;9.90;100.00
16481;BME280;44634;54.110;12.138;2023-04-30T07:32:03;102344.97;;;9.84;100.00
16481;BME280;44634;54.110;12.138;2023-04-30T07:34:30;102343.81;;;10.45;100.00
16481;BME280;44634;54.110;12.138;2023-04-30T07:36:58;102351.28;;;10.10;100.00
16481;BME280;44634;54.110;12.138;2023-04-30T07:39:26;102345.44;;;10.05;100.00
16481;BME280;44634;54.110;12.138;2023-04-30T07:41:54;102347.28;;;10.60;100.00
16481;BME280;44634;54.110;12.138;2023-04-30T07:44:22;102345.91;;;10.81;100.00
16481;BME280;44634;54.110;12.138;2023-04-30T07:46:51;102342.38;;;11.47;100.00
16481;BME280;44634;54.110;12.138;2023-04-30T07:49:19;102341.34;;;10.56;100.00
16481;BME280;44634;54.110;12.138;2023-04-30T07:51:47;102334.03;;;10.33;100.00
16481;BME280;44634;54.110;12.138;2023-04-30T07:54:15;102340.94;;;10.62;100.00
16481;BME280;44634;54.110;12.138;2023-04-30T07:56:42;102359.34;;;10.78;100.00
16481;BME280;44634;54.110;12.138;2023-04-30T07:59:10;102358.00;;;11.25;100.00
16481;BME280;44634;54.110;12.138;2023-04-30T08:01:38;102360.44;;;11.15;100.00
16481;BME280;44634;54.110;12.138;2023-04-30T08:04:08;102366.44;;;11.57;100.00
16481;BME280;44634;54.110;12.138;2023-04-30T08:06:36;102376.59;;;11.11;100.00
16481;BME280;44634;54.110;12.138;2023-04-30T08:09:04;102372.56;;;11.05;100.00
16481;BME280;44634;54.110;12.138;2023-04-30T08:11:31;102369.22;;;11.16;100.00
16481;BME280;44634;54.110;12.138;2023-04-30T08:13:59;102379.69;;;10.63;100.00
16481;BME280;44634;54.110;12.138;2023-04-30T08:16:27;102378.91;;;11.02;100.00
16481;BME280;44634;54.110;12.138;2023-04-30T08:18:55;102386.84;;;11.02;100.00
16481;BME280;44634;54.110;12.138;2023-04-30T08:21:24;102380.13;;;11.24;100.00
16481;BME280;44634;54.110;12.138;2023-04-30T08:23:53;102383.59;;;10.85;100.00
16481;BME280;44634;54.110;12.138;2023-04-30T08:26:21;102386.34;;;10.28;100.00
16481;BME280;44634;54.110;12.138;2023-04-30T08:28:48;102390.34;;;11.03;100.00
16481;BME280;44634;54.110;12.138;2023-04-30T08:31:17;102397.63;;;10.72;100.00
16481;BME280;44634;54.110;12.138;2023-04-30T08:33:44;102398.03;;;10.93;98.75
16481;BME280;44634;54.110;12.138;2023-04-30T08:36:12;102386.59;;;11.20;95.19
16481;BME280;44634;54.110;12.138;2023-04-30T08:38:41;102396.94;;;11.10;92.92
16481;BME280;44634;54.110;12.138;2023-04-30T08:41:10;102391.81;;;11.34;99.89
16481;BME280;44634;54.110;12.138;2023-04-30T08:43:39;102382.13;;;11.47;100.00
16481;BME280;44634;54.110;12.138;2023-04-30T08:46:07;102395.06;;;11.25;99.04
16481;BME280;44634;54.110;12.138;2023-04-30T08:48:35;102397.22;;;11.85;87.18
16481;BME280;44634;54.110;12.138;2023-04-30T08:51:03;102398.88;;;11.60;90.70
16481;BME280;44634;54.110;12.138;2023-04-30T08:53:34;102395.88;;;11.92;86.54
16481;BME280;44634;54.110;12.138;2023-04-30T08:56:04;102411.56;;;11.55;82.24
16481;BME280;44634;54.110;12.138;2023-04-30T08:58:32;102416.06;;;11.68;86.72
16481;BME280;44634;54.110;12.138;2023-04-30T09:01:00;102409.00;;;11.28;84.45
16481;BME280;44634;54.110;12.138;2023-04-30T09:03:29;102405.19;;;11.85;83.30
16481;BME280;44634;54.110;12.138;2023-04-30T09:05:57;102392.59;;;11.88;82.12
16481;BME280;44634;54.110;12.138;2023-04-30T09:08:41;102398.75;;;12.02;73.63
16481;BME280;44634;54.110;12.138;2023-04-30T09:11:22;102407.16;;;11.69;85.91
16481;BME280;44634;54.110;12.138;2023-04-30T09:13:51;102412.22;;;11.19;85.51
16481;BME280;44634;54.110;12.138;2023-04-30T09:16:19;102405.41;;;11.95;85.46
16481;BME280;44634;54.110;12.138;2023-04-30T09:18:48;102409.75;;;12.21;83.74
16481;BME280;44634;54.110;12.138;2023-04-30T09:21:16;102413.66;;;12.41;87.79
16481;BME280;44634;54.110;12.138;2023-04-30T09:23:54;102415.78;;;12.48;82.96
16481;BME280;44634;54.110;12.138;2023-04-30T09:26:29;102416.09;;;12.44;73.46
16481;BME280;44634;54.110;12.138;2023-04-30T09:28:58;102421.63;;;12.41;82.12
16481;BME280;44634;54.110;12.138;2023-04-30T09:31:26;102427.03;;;12.27;83.60
16481;BME280;44634;54.110;12.138;2023-04-30T09:33:54;102416.97;;;12.81;69.95
16481;BME280;44634;54.110;12.138;2023-04-30T09:36:21;102413.78;;;12.89;67.96
16481;BME280;44634;54.110;12.138;2023-04-30T09:38:49;102433.50;;;12.48;69.63
16481;BME280;44634;54.110;12.138;2023-04-30T09:41:20;102428.22;;;12.23;88.41
16481;BME280;44634;54.110;12.138;2023-04-30T09:43:50;102413.81;;;12.76;86.49
16481;BME280;44634;54.110;12.138;2023-04-30T09:46:19;102406.06;;;13.68;78.47
16481;BME280;44634;54.110;12.138;2023-04-30T09:48:56;102420.88;;;13.25;64.90
16481;BME280;44634;54.110;12.138;2023-04-30T09:51:24;102426.88;;;12.66;59.61
16481;BME280;44634;54.110;12.138;2023-04-30T09:53:53;102417.94;;;12.80;56.74
16481;BME280;44634;54.110;12.138;2023-04-30T09:56:23;102415.13;;;13.66;52.67
16481;BME280;44634;54.110;12.138;2023-04-30T09:58:54;102410.25;;;14.84;48.74
16481;BME280;44634;54.110;12.138;2023-04-30T10:01:25;102393.03;;;14.88;49.29
16481;BME280;44634;54.110;12.138;2023-04-30T10:03:53;102396.59;;;14.78;46.61
16481;BME280;44634;54.110;12.138;2023-04-30T10:06:21;102401.34;;;15.38;42.57
16481;BME280;44634;54.110;12.138;2023-04-30T10:08:52;102387.97;;;15.50;42.62
16481;BME280;44634;54.110;12.138;2023-04-30T10:11:27;102398.22;;;14.47;46.20
16481;BME280;44634;54.110;12.138;2023-04-30T10:13:59;102401.25;;;15.29;45.78
16481;BME280;44634;54.110;12.138;2023-04-30T10:16:33;102401.78;;;14.91;43.69
16481;BME280;44634;54.110;12.138;2023-04-30T10:19:10;102406.28;;;14.45;46.86
16481;BME280;44634;54.110;12.138;2023-04-30T10:21:39;102400.31;;;14.86;46.96
16481;BME280;44634;54.110;12.138;2023-04-30T10:24:11;102397.38;;;15.65;46.57
16481;BME280;44634;54.110;12.138;2023-04-30T10:26:40;102397.34;;;15.86;42.93
16481;BME280;44634;54.110;12.138;2023-04-30T10:29:11;102395.53;;;16.07;42.16
16481;BME280;44634;54.110;12.138;2023-04-30T10:31:40;102396.72;;;16.24;39.51
16481;BME280;44634;54.110;12.138;2023-04-30T10:34:16;102394.16;;;16.13;39.53
16481;BME280;44634;54.110;12.138;2023-04-30T10:36:47;102392.03;;;16.87;38.50
16481;BME280;44634;54.110;12.138;2023-04-30T10:39:18;102386.16;;;16.62;38.47
16481;BME280;44634;54.110;12.138;2023-04-30T10:41:47;102364.75;;;17.41;37.63
16481;BME280;44634;54.110;12.138;2023-04-30T10:44:20;102383.78;;;15.68;39.81
16481;BME280;44634;54.110;12.138;2023-04-30T10:46:48;102373.28;;;16.77;38.91
16481;BME280;44634;54.110;12.138;2023-04-30T10:49:23;102375.75;;;17.09;39.96
16481;BME280;44634;54.110;12.138;2023-04-30T10:51:51;102368.34;;;17.98;37.95
16481;BME280;44634;54.110;12.138;2023-04-30T10:54:24;102389.47;;;16.76;37.30
16481;BME280;44634;54.110;12.138;2023-04-30T10:56:53;102401.22;;;15.93;37.43
16481;BME280;44634;54.110;12.138;2023-04-30T10:59:27;102386.66;;;16.37;34.98
16481;BME280;44634;54.110;12.138;2023-04-30T11:01:57;102368.25;;;17.80;37.33
16481;BME280;44634;54.110;12.138;2023-04-30T11:04:25;102388.00;;;16.62;36.33
16481;BME280;44634;54.110;12.138;2023-04-30T11:07:07;102377.28;;;17.79;35.64
16481;BME280;44634;54.110;12.138;2023-04-30T11:09:38;102379.66;;;16.46;38.66
16481;BME280;44634;54.110;12.138;2023-04-30T11:12:11;102383.59;;;16.42;35.83
16481;BME280;44634;54.110;12.138;2023-04-30T11:14:43;102367.00;;;17.65;36.86
16481;BME280;44634;54.110;12.138;2023-04-30T11:17:12;102368.84;;;17.16;38.26
16481;BME280;44634;54.110;12.138;2023-04-30T11:19:49;102360.38;;;17.60;38.09
16481;BME280;44634;54.110;12.138;2023-04-30T11:22:20;102358.06;;;16.58;40.22
16481;BME280;44634;54.110;12.138;2023-04-30T11:24:49;102386.34;;;16.30;40.21
16481;BME280;44634;54.110;12.138;2023-04-30T11:27:19;102367.19;;;16.56;39.95
16481;BME280;44634;54.110;12.138;2023-04-30T11:29:49;102359.81;;;16.88;40.19
16481;BME280;44634;54.110;12.138;2023-04-30T11:32:18;102353.91;;;17.43;41.05
16481;BME280;44634;54.110;12.138;2023-04-30T11:34:46;102359.56;;;18.33;38.36
16481;BME280;44634;54.110;12.138;2023-04-30T11:37:18;102362.78;;;17.14;41.01
16481;BME280;44634;54.110;12.138;2023-04-30T11:39:46;102370.09;;;15.61;42.17
16481;BME280;44634;54.110;12.138;2023-04-30T11:42:15;102366.91;;;16.49;42.37
16481;BME280;44634;54.110;12.138;2023-04-30T11:44:44;102349.28;;;17.45;40.98
16481;BME280;44634;54.110;12.138;2023-04-30T11:47:14;102352.38;;;17.02;42.58
16481;BME280;44634;54.110;12.138;2023-04-30T11:49:42;102359.97;;;17.06;44.40
16481;BME280;44634;54.110;12.138;2023-04-30T11:52:12;102359.22;;;16.65;43.91
16481;BME280;44634;54.110;12.138;2023-04-30T11:54:39;102350.06;;;17.65;42.10
16481;BME280;44634;54.110;12.138;2023-04-30T11:57:07;102353.66;;;18.85;41.58
16481;BME280;44634;54.110;12.138;2023-04-30T11:59:39;102357.41;;;17.72;42.34
16481;BME280;44634;54.110;12.138;2023-04-30T12:02:07;102371.72;;;16.65;44.74
16481;BME280;44634;54.110;12.138;2023-04-30T12:04:42;102352.66;;;17.37;40.70
16481;BME280;44634;54.110;12.138;2023-04-30T12:07:09;102352.09;;;17.05;41.82
16481;BME280;44634;54.110;12.138;2023-04-30T12:09:50;102348.63;;;18.27;42.66
16481;BME280;44634;54.110;12.138;2023-04-30T12:12:26;102351.38;;;18.62;41.01
16481;BME280;44634;54.110;12.138;2023-04-30T12:14:53;102361.09;;;18.36;43.34
16481;BME280;44634;54.110;12.138;2023-04-30T12:17:33;102361.94;;;19.27;40.31
16481;BME280;44634;54.110;12.138;2023-04-30T12:20:03;102354.53;;;18.58;42.22
16481;BME280;44634;54.110;12.138;2023-04-30T12:22:31;102360.13;;;17.14;44.39
16481;BME280;44634;54.110;12.138;2023-04-30T12:24:59;102359.91;;;17.64;43.88
16481;BME280;44634;54.110;12.138;2023-04-30T12:27:27;102354.34;;;18.69;40.34
16481;BME280;44634;54.110;12.138;2023-04-30T12:29:55;102346.63;;;19.01;40.66
16481;BME280;44634;54.110;12.138;2023-04-30T12:32:23;102350.56;;;18.34;40.59
16481;BME280;44634;54.110;12.138;2023-04-30T12:34:56;102357.94;;;18.78;40.01
16481;BME280;44634;54.110;12.138;2023-04-30T12:37:26;102346.88;;;17.51;41.61
16481;BME280;44634;54.110;12.138;2023-04-30T12:39:54;102375.28;;;16.35;44.39
16481;BME280;44634;54.110;12.138;2023-04-30T12:42:23;102348.63;;;18.54;43.36
16481;BME280;44634;54.110;12.138;2023-04-30T12:44:51;102353.41;;;17.96;44.07
16481;BME280;44634;54.110;12.138;2023-04-30T12:47:19;102348.31;;;18.85;41.40
16481;BME280;44634;54.110;12.138;2023-04-30T12:49:48;102351.19;;;18.46;42.50